createdAt,value
2023-06-24T00:00:39.625Z,17.44
2023-06-24T00:01:39.420Z,17.38
2023-06-24T00:02:39.401Z,17.32
2023-06-24T00:03:39.408Z,17.28
2023-06-24T00:04:39.375Z,17.22
2023-06-24T00:05:39.366Z,17.20
2023-06-24T00:06:39.367Z,17.18
2023-06-24T00:07:39.344Z,17.13
2023-06-24T00:08:39.330Z,17.06
2023-06-24T00:09:39.322Z,16.98
2023-06-24T00:10:39.301Z,16.85
2023-06-24T00:11:39.353Z,16.70
2023-06-24T00:12:39.291Z,16.59
2023-06-24T00:13:39.284Z,16.55
2023-06-24T00:14:39.275Z,16.58
2023-06-24T00:15:39.254Z,16.65
2023-06-24T00:16:39.236Z,16.67
2023-06-24T00:17:39.324Z,16.73
2023-06-24T00:18:39.226Z,16.68
2023-06-24T00:19:39.284Z,16.65
2023-06-24T00:20:39.195Z,16.63
2023-06-24T00:21:39.200Z,16.62
2023-06-24T00:22:39.182Z,16.63
2023-06-24T00:23:39.178Z,16.68
2023-06-24T00:24:39.150Z,16.68
2023-06-24T00:25:39.148Z,16.70
2023-06-24T00:26:39.145Z,16.70
2023-06-24T00:27:39.136Z,16.65
2023-06-24T00:28:39.129Z,16.60
2023-06-24T00:29:39.107Z,16.56
2023-06-24T00:30:39.099Z,16.49
2023-06-24T00:31:39.108Z,16.45
2023-06-24T00:32:39.115Z,16.44
2023-06-24T00:33:39.064Z,16.44
2023-06-24T00:34:39.070Z,16.42
2023-06-24T00:35:39.053Z,16.40
2023-06-24T00:36:39.037Z,16.40
2023-06-24T00:37:39.025Z,16.40
2023-06-24T00:38:39.023Z,16.40
2023-06-24T00:39:38.996Z,16.37
2023-06-24T00:40:38.978Z,16.33
2023-06-24T00:41:38.995Z,16.27
2023-06-24T00:42:38.984Z,16.30
2023-06-24T00:43:38.954Z,16.30
2023-06-24T00:44:38.937Z,16.33
2023-06-24T00:45:38.930Z,16.40
2023-06-24T00:46:38.928Z,16.42
2023-06-24T00:47:38.910Z,16.44
2023-06-24T00:48:38.895Z,16.44
2023-06-24T00:49:38.890Z,16.42
2023-06-24T00:50:38.869Z,16.44
2023-06-24T00:51:38.872Z,16.42
2023-06-24T00:52:38.872Z,16.42
2023-06-24T00:53:38.851Z,16.42
2023-06-24T00:54:38.825Z,16.37
2023-06-24T00:55:38.849Z,16.34
2023-06-24T00:56:38.826Z,16.31
2023-06-24T00:57:38.812Z,16.25
2023-06-24T00:58:38.785Z,16.25
2023-06-24T00:59:38.778Z,16.25
2023-06-24T01:00:38.777Z,16.23
2023-06-24T01:01:38.869Z,16.25
2023-06-24T01:02:38.812Z,16.33
2023-06-24T01:03:38.780Z,16.37
2023-06-24T01:04:38.729Z,16.37
2023-06-24T01:05:38.724Z,16.35
2023-06-24T01:06:38.724Z,16.37
2023-06-24T01:07:38.696Z,16.38
2023-06-24T01:08:38.699Z,16.40
2023-06-24T01:09:38.687Z,16.41
2023-06-24T01:10:38.667Z,16.38
2023-06-24T01:11:38.648Z,16.40
2023-06-24T01:12:38.658Z,16.35
2023-06-24T01:13:38.634Z,16.33
2023-06-24T01:14:38.637Z,16.25
2023-06-24T01:15:38.612Z,16.16
2023-06-24T01:16:38.614Z,16.12
2023-06-24T01:17:38.620Z,16.01
2023-06-24T01:18:38.582Z,15.96
2023-06-24T01:19:38.578Z,15.88
2023-06-24T01:20:38.570Z,15.86
2023-06-24T01:21:38.544Z,15.85
2023-06-24T01:22:38.538Z,15.88
2023-06-24T01:23:38.537Z,15.89
2023-06-24T01:24:38.537Z,15.93
2023-06-24T01:25:38.507Z,15.97
2023-06-24T01:26:38.489Z,15.99
2023-06-24T01:27:38.488Z,15.99
2023-06-24T01:28:38.494Z,15.97
2023-06-24T01:29:38.461Z,15.93
2023-06-24T01:30:38.446Z,15.88
2023-06-24T01:31:38.467Z,15.86
2023-06-24T01:32:38.494Z,15.89
2023-06-24T01:33:38.519Z,15.82
2023-06-24T01:34:38.411Z,15.79
2023-06-24T01:35:38.405Z,15.75
2023-06-24T01:36:38.387Z,15.75
2023-06-24T01:37:38.386Z,15.75
2023-06-24T01:38:38.432Z,15.78
2023-06-24T01:39:38.348Z,15.82
2023-06-24T01:40:38.347Z,15.84
2023-06-24T01:41:38.337Z,15.85
2023-06-24T01:42:38.346Z,15.85
2023-06-24T01:43:38.310Z,15.89
2023-06-24T01:44:38.300Z,15.88
2023-06-24T01:45:38.288Z,15.85
2023-06-24T01:46:38.338Z,15.81
2023-06-24T01:47:38.333Z,15.76
2023-06-24T01:48:38.308Z,15.68
2023-06-24T01:49:38.247Z,15.66
2023-06-24T01:50:38.243Z,15.61
2023-06-24T01:51:38.239Z,15.51
2023-06-24T01:52:38.231Z,15.42
2023-06-24T01:53:38.198Z,15.38
2023-06-24T01:54:38.191Z,15.30
2023-06-24T01:55:38.187Z,15.23
2023-06-24T01:56:38.188Z,15.17
2023-06-24T01:57:38.172Z,15.13
2023-06-24T01:58:38.157Z,15.09
2023-06-24T01:59:38.144Z,15.03
2023-06-24T02:00:38.187Z,15.03
2023-06-24T02:01:38.169Z,15.02
2023-06-24T02:02:38.148Z,15.03
2023-06-24T02:03:38.138Z,15.06
2023-06-24T02:04:38.100Z,15.12
2023-06-24T02:05:38.158Z,15.17
2023-06-24T02:06:38.114Z,15.24
2023-06-24T02:07:38.066Z,15.35
2023-06-24T02:08:38.053Z,15.39
2023-06-24T02:09:38.033Z,15.41
2023-06-24T02:10:38.050Z,15.43
2023-06-24T02:11:38.008Z,15.41
2023-06-24T02:12:38.006Z,15.38
2023-06-24T02:13:38.005Z,15.28
2023-06-24T02:14:37.990Z,15.26
2023-06-24T02:15:38.040Z,15.26
2023-06-24T02:16:38.011Z,15.28
2023-06-24T02:17:38.047Z,15.35
2023-06-24T02:18:38.017Z,15.36
2023-06-24T02:19:37.954Z,15.39
2023-06-24T02:20:37.958Z,15.41
2023-06-24T02:21:37.901Z,15.41
2023-06-24T02:22:37.898Z,15.38
2023-06-24T02:23:37.882Z,15.35
2023-06-24T02:24:37.890Z,15.31
2023-06-24T02:25:37.899Z,15.27
2023-06-24T02:26:37.860Z,15.26
2023-06-24T02:27:37.840Z,15.27
2023-06-24T02:28:37.833Z,15.28
2023-06-24T02:29:37.846Z,15.30
2023-06-24T02:30:37.833Z,15.30
2023-06-24T02:31:37.803Z,15.33
2023-06-24T02:32:37.765Z,15.27
2023-06-24T02:33:37.748Z,15.19
2023-06-24T02:34:37.733Z,15.13
2023-06-24T02:35:37.884Z,15.06
2023-06-24T02:36:37.696Z,15.01
2023-06-24T02:37:37.681Z,14.99
2023-06-24T02:38:37.689Z,14.94
2023-06-24T02:39:37.659Z,14.88
2023-06-24T02:40:37.699Z,14.83
2023-06-24T02:41:37.646Z,14.83
2023-06-24T02:42:37.652Z,14.81
2023-06-24T02:43:37.775Z,14.81
2023-06-24T02:44:37.610Z,14.84
2023-06-24T02:45:37.684Z,14.86
2023-06-24T02:46:37.643Z,14.83
2023-06-24T02:47:37.635Z,14.83
2023-06-24T02:48:37.582Z,14.87
2023-06-24T02:49:43.579Z,14.91
2023-06-24T02:50:37.547Z,14.94
2023-06-24T02:51:37.558Z,14.86
2023-06-24T02:52:37.544Z,14.81
2023-06-24T02:53:37.513Z,14.72
2023-06-24T02:54:37.512Z,14.68
2023-06-24T02:55:37.671Z,14.65
2023-06-24T02:56:37.485Z,14.64
2023-06-24T02:57:37.523Z,14.62
2023-06-24T02:58:37.466Z,14.64
2023-06-24T02:59:37.448Z,14.64
2023-06-24T03:00:37.451Z,14.68
2023-06-24T03:01:37.491Z,14.74
2023-06-24T03:02:37.532Z,14.83
2023-06-24T03:03:37.462Z,14.91
2023-06-24T03:04:37.401Z,14.98
2023-06-24T03:05:37.681Z,15.02
2023-06-24T03:06:37.409Z,15.06
2023-06-24T03:07:37.386Z,15.11
2023-06-24T03:08:37.367Z,15.12
2023-06-24T03:09:37.349Z,15.13
2023-06-24T03:10:37.391Z,15.11
2023-06-24T03:11:37.349Z,15.06
2023-06-24T03:12:37.326Z,15.02
2023-06-24T03:13:37.333Z,14.98
2023-06-24T03:14:37.326Z,14.98
2023-06-24T03:15:37.442Z,14.98
2023-06-24T03:16:37.293Z,14.99
2023-06-24T03:17:37.307Z,14.98
2023-06-24T03:18:37.260Z,14.99
2023-06-24T03:19:37.235Z,15.01
2023-06-24T03:20:37.248Z,15.02
2023-06-24T03:21:37.236Z,15.03
2023-06-24T03:22:37.209Z,15.02
2023-06-24T03:23:37.194Z,15.01
2023-06-24T03:24:37.194Z,14.99
2023-06-24T03:25:37.303Z,14.94
2023-06-24T03:26:37.166Z,14.93
2023-06-24T03:27:37.151Z,14.87
2023-06-24T03:28:37.164Z,14.83
2023-06-24T03:29:37.149Z,14.83
2023-06-24T03:30:37.139Z,14.81
2023-06-24T03:31:37.139Z,14.74
2023-06-24T03:32:37.198Z,14.72
2023-06-24T03:33:37.101Z,14.80
2023-06-24T03:34:37.099Z,14.84
2023-06-24T03:35:37.332Z,14.88
2023-06-24T03:36:37.077Z,14.87
2023-06-24T03:37:37.059Z,14.88
2023-06-24T03:38:37.050Z,14.87
2023-06-24T03:39:37.044Z,14.87
2023-06-24T03:40:37.049Z,14.81
2023-06-24T03:41:37.063Z,14.74
2023-06-24T03:42:37.029Z,14.74
2023-06-24T03:43:37.018Z,14.74
2023-06-24T03:44:36.987Z,14.78
2023-06-24T03:45:37.291Z,14.81
2023-06-24T03:46:36.963Z,14.88
2023-06-24T03:47:36.968Z,14.98
2023-06-24T03:48:36.946Z,15.01
2023-06-24T03:49:36.947Z,15.02
2023-06-24T03:50:36.911Z,15.12
2023-06-24T03:51:36.903Z,15.19
2023-06-24T03:52:36.898Z,15.23
2023-06-24T03:53:36.896Z,15.31
2023-06-24T03:54:36.868Z,15.39
2023-06-24T03:55:37.137Z,15.49
2023-06-24T03:56:36.849Z,15.57
2023-06-24T03:57:36.877Z,15.60
2023-06-24T03:58:36.858Z,15.64
2023-06-24T03:59:36.823Z,15.67
2023-06-24T04:00:36.823Z,15.75
2023-06-24T04:01:36.853Z,15.74
2023-06-24T04:02:36.822Z,15.75
2023-06-24T04:03:36.794Z,15.78
2023-06-24T04:04:36.759Z,15.78
2023-06-24T04:05:36.861Z,15.74
2023-06-24T04:06:36.813Z,15.74
2023-06-24T04:07:36.756Z,15.76
2023-06-24T04:08:36.715Z,15.82
2023-06-24T04:09:36.722Z,15.88
2023-06-24T04:10:36.703Z,15.94
2023-06-24T04:11:36.691Z,15.99
2023-06-24T04:12:36.686Z,16.01
2023-06-24T04:13:36.658Z,16.07
2023-06-24T04:14:36.665Z,16.15
2023-06-24T04:15:36.871Z,16.20
2023-06-24T04:16:36.666Z,16.26
2023-06-24T04:17:36.631Z,16.31
2023-06-24T04:18:36.618Z,16.34
2023-06-24T04:19:36.593Z,16.34
2023-06-24T04:20:38.299Z,16.35
2023-06-24T04:21:36.589Z,16.42
2023-06-24T04:22:36.567Z,16.48
2023-06-24T04:23:36.559Z,16.52
2023-06-24T04:24:36.547Z,16.55
2023-06-24T04:25:36.751Z,16.59
2023-06-24T04:26:36.537Z,16.70
2023-06-24T04:27:36.555Z,16.86
2023-06-24T04:28:36.543Z,16.96
2023-06-24T04:29:36.538Z,17.00
2023-06-24T04:30:36.493Z,17.10
2023-06-24T04:31:36.517Z,17.10
2023-06-24T04:32:36.601Z,17.15
2023-06-24T04:33:36.479Z,17.32
2023-06-24T04:34:36.455Z,17.84
2023-06-24T04:35:36.919Z,18.52
2023-06-24T04:36:36.435Z,19.18
2023-06-24T04:37:36.470Z,19.53
2023-06-24T04:38:36.424Z,19.93
2023-06-24T04:39:36.383Z,20.12
2023-06-24T04:40:36.395Z,20.24
2023-06-24T04:41:36.361Z,20.50
2023-06-24T04:42:36.357Z,20.68
2023-06-24T04:43:36.358Z,20.81
2023-06-24T04:44:36.368Z,20.93
2023-06-24T04:45:36.611Z,21.38
2023-06-24T04:46:36.342Z,21.69
2023-06-24T04:47:36.352Z,22.06
2023-06-24T04:48:36.298Z,22.34
2023-06-24T04:49:36.299Z,22.56
2023-06-24T04:50:36.536Z,23.05
2023-06-24T04:51:36.263Z,23.38
2023-06-24T04:52:36.259Z,23.68
2023-06-24T04:53:36.340Z,23.98
2023-06-24T04:54:36.252Z,24.34
2023-06-24T04:55:36.463Z,24.26
2023-06-24T04:56:36.222Z,24.14
2023-06-24T04:57:36.209Z,24.00
2023-06-24T04:58:36.229Z,24.07
2023-06-24T04:59:36.203Z,24.20
2023-06-24T05:00:36.177Z,24.39
2023-06-24T05:01:36.190Z,24.41
2023-06-24T05:02:36.161Z,24.07
2023-06-24T05:03:36.144Z,23.57
2023-06-24T05:04:36.152Z,23.31
2023-06-24T05:05:36.652Z,23.19
2023-06-24T05:06:36.163Z,23.19
2023-06-24T05:07:36.155Z,23.04
2023-06-24T05:08:36.136Z,23.04
2023-06-24T05:09:36.077Z,23.32
2023-06-24T05:10:36.073Z,23.80
2023-06-24T05:11:36.053Z,24.19
2023-06-24T05:12:36.187Z,24.50
2023-06-24T05:13:36.031Z,24.64
2023-06-24T05:14:36.077Z,24.85
2023-06-24T05:15:36.291Z,25.12
2023-06-24T05:16:36.008Z,25.19
2023-06-24T05:17:36.063Z,25.34
2023-06-24T05:18:35.979Z,25.72
2023-06-24T05:19:35.973Z,25.68
2023-06-24T05:20:35.967Z,25.43
2023-06-24T05:21:35.963Z,25.24
2023-06-24T05:22:35.977Z,25.32
2023-06-24T05:23:35.927Z,25.10
2023-06-24T05:24:35.921Z,24.90
2023-06-24T05:25:36.144Z,25.27
2023-06-24T05:26:35.912Z,25.52
2023-06-24T05:27:35.908Z,25.87
2023-06-24T05:28:35.877Z,26.06
2023-06-24T05:29:35.898Z,25.97
2023-06-24T05:30:35.868Z,25.72
2023-06-24T05:31:35.867Z,25.59
2023-06-24T05:32:35.859Z,25.65
2023-06-24T05:33:35.834Z,26.05
2023-06-24T05:34:35.813Z,26.15
2023-06-24T05:35:35.984Z,26.29
2023-06-24T05:36:35.803Z,26.65
2023-06-24T05:37:35.786Z,27.14
2023-06-24T05:38:35.789Z,27.58
2023-06-24T05:39:35.984Z,27.91
2023-06-24T05:40:35.776Z,28.03
2023-06-24T05:41:35.739Z,27.62
2023-06-24T05:42:35.728Z,27.51
2023-06-24T05:43:35.737Z,27.76
2023-06-24T05:44:35.747Z,27.95
2023-06-24T05:45:36.064Z,28.04
2023-06-24T05:46:35.753Z,28.14
2023-06-24T05:47:35.757Z,28.17
2023-06-24T05:48:35.663Z,28.35
2023-06-24T05:49:35.706Z,28.47
2023-06-24T05:50:35.700Z,28.47
2023-06-24T05:51:35.646Z,28.43
2023-06-24T05:52:35.625Z,28.31
2023-06-24T05:53:35.626Z,28.28
2023-06-24T05:54:35.610Z,27.99
2023-06-24T05:55:35.977Z,27.99
2023-06-24T05:56:37.673Z,27.92
2023-06-24T05:57:35.581Z,27.82
2023-06-24T05:58:35.597Z,27.94
2023-06-24T05:59:35.588Z,28.13
2023-06-24T06:00:35.541Z,28.43
2023-06-24T06:01:35.534Z,28.36
2023-06-24T06:02:35.704Z,28.28
2023-06-24T06:03:35.530Z,27.91
2023-06-24T06:04:35.515Z,28.35
2023-06-24T06:05:35.758Z,28.68
2023-06-24T06:06:35.481Z,28.85
2023-06-24T06:07:35.477Z,28.87
2023-06-24T06:08:35.479Z,28.91
2023-06-24T06:09:35.477Z,29.13
2023-06-24T06:10:35.433Z,29.38
2023-06-24T06:11:35.449Z,29.49
2023-06-24T06:12:35.447Z,29.52
2023-06-24T06:13:35.435Z,29.78
2023-06-24T06:14:35.435Z,30.09
2023-06-24T06:15:35.672Z,30.31
2023-06-24T06:16:35.376Z,30.45
2023-06-24T06:17:35.522Z,30.31
2023-06-24T06:18:35.357Z,29.34
2023-06-24T06:19:35.362Z,29.15
2023-06-24T06:20:35.390Z,28.82
2023-06-24T06:21:35.338Z,28.66
2023-06-24T06:22:35.345Z,28.63
2023-06-24T06:23:35.352Z,29.07
2023-06-24T06:24:35.303Z,29.08
2023-06-24T06:25:35.578Z,29.11
2023-06-24T06:26:35.309Z,28.77
2023-06-24T06:27:35.282Z,28.21
2023-06-24T06:28:35.276Z,28.06
2023-06-24T06:29:35.275Z,28.28
2023-06-24T06:30:35.253Z,28.26
2023-06-24T06:31:35.264Z,28.19
2023-06-24T06:32:35.266Z,28.62
2023-06-24T06:33:35.233Z,28.88
2023-06-24T06:34:35.220Z,29.23
2023-06-24T06:35:35.531Z,29.45
2023-06-24T06:36:35.215Z,29.31
2023-06-24T06:37:35.169Z,29.40
2023-06-24T06:38:35.201Z,28.88
2023-06-24T06:39:35.157Z,29.01
2023-06-24T06:40:35.177Z,28.66
2023-06-24T06:41:35.162Z,29.22
2023-06-24T06:42:35.122Z,29.52
2023-06-24T06:43:35.130Z,29.37
2023-06-24T06:44:35.128Z,29.06
2023-06-24T06:45:35.396Z,29.08
2023-06-24T06:46:35.108Z,29.00
2023-06-24T06:47:35.109Z,29.03
2023-06-24T06:48:35.059Z,28.85
2023-06-24T06:49:35.058Z,29.34
2023-06-24T06:50:35.050Z,29.71
2023-06-24T06:51:35.035Z,29.71
2023-06-24T06:52:35.016Z,29.45
2023-06-24T06:53:35.024Z,29.41
2023-06-24T06:54:35.019Z,29.26
2023-06-24T06:55:35.305Z,29.35
2023-06-24T06:56:34.997Z,29.52
2023-06-24T06:57:34.980Z,29.71
2023-06-24T06:58:34.968Z,29.31
2023-06-24T06:59:34.993Z,29.16
2023-06-24T07:00:34.957Z,29.26
2023-06-24T07:01:35.001Z,29.63
2023-06-24T07:02:34.974Z,29.70
2023-06-24T07:03:34.926Z,29.25
2023-06-24T07:04:34.921Z,29.57
2023-06-24T07:05:36.776Z,29.59
2023-06-24T07:06:35.046Z,29.52
2023-06-24T07:07:34.949Z,29.47
2023-06-24T07:08:34.980Z,29.75
2023-06-24T07:09:34.891Z,29.66
2023-06-24T07:10:34.897Z,29.43
2023-06-24T07:11:34.940Z,29.37
2023-06-24T07:12:34.913Z,29.68
2023-06-24T07:13:34.891Z,29.75
2023-06-24T07:14:34.795Z,30.23
2023-06-24T07:15:35.237Z,30.59
2023-06-24T07:16:34.814Z,30.69
2023-06-24T07:17:34.804Z,30.65
2023-06-24T07:18:34.786Z,30.71
2023-06-24T07:19:34.748Z,30.56
2023-06-24T07:20:34.737Z,30.78
2023-06-24T07:21:34.748Z,30.87
2023-06-24T07:22:34.772Z,30.93
2023-06-24T07:23:34.727Z,31.13
2023-06-24T07:24:34.710Z,30.57
2023-06-24T07:25:34.928Z,29.87
2023-06-24T07:26:34.689Z,29.87
2023-06-24T07:27:34.684Z,30.14
2023-06-24T07:28:34.698Z,30.09
2023-06-24T07:29:34.653Z,30.40
2023-06-24T07:30:34.667Z,30.07
2023-06-24T07:31:34.676Z,30.19
2023-06-24T07:32:34.642Z,29.63
2023-06-24T07:33:34.628Z,29.74
2023-06-24T07:34:34.655Z,29.63
2023-06-24T07:35:35.105Z,28.90
2023-06-24T07:36:34.594Z,28.78
2023-06-24T07:37:34.632Z,29.13
2023-06-24T07:38:34.623Z,29.37
2023-06-24T07:39:34.614Z,29.16
2023-06-24T07:40:34.543Z,29.08
2023-06-24T07:41:34.602Z,29.15
2023-06-24T07:42:34.513Z,29.34
2023-06-24T07:43:34.514Z,29.25
2023-06-24T07:44:34.505Z,28.72
2023-06-24T07:45:34.720Z,28.35
2023-06-24T07:46:34.531Z,28.31
2023-06-24T07:47:34.507Z,28.21
2023-06-24T07:48:34.461Z,28.09
2023-06-24T07:49:34.451Z,28.06
2023-06-24T07:50:34.501Z,28.03
2023-06-24T07:51:34.449Z,28.14
2023-06-24T07:52:34.415Z,27.94
2023-06-24T07:53:34.421Z,27.85
2023-06-24T07:54:34.394Z,27.67
2023-06-24T07:55:34.810Z,27.59
2023-06-24T07:56:34.370Z,27.35
2023-06-24T07:57:34.394Z,27.17
2023-06-24T07:58:34.362Z,27.14
2023-06-24T07:59:34.351Z,26.79
2023-06-24T08:00:34.353Z,26.79
2023-06-24T08:01:34.349Z,26.47
2023-06-24T08:02:34.341Z,26.40
2023-06-24T08:03:34.442Z,26.15
2023-06-24T08:04:34.373Z,26.01
2023-06-24T08:05:34.577Z,25.90
2023-06-24T08:06:34.272Z,26.02
2023-06-24T08:07:34.266Z,26.21
2023-06-24T08:08:34.263Z,25.89
2023-06-24T08:09:34.294Z,25.91
2023-06-24T08:10:34.255Z,25.84
2023-06-24T08:11:34.231Z,25.90
2023-06-24T08:12:34.227Z,25.98
2023-06-24T08:13:34.226Z,25.72
2023-06-24T08:14:34.217Z,25.50
2023-06-24T08:15:34.429Z,25.42
2023-06-24T08:16:34.183Z,25.49
2023-06-24T08:17:34.206Z,25.54
2023-06-24T08:18:34.180Z,25.46
2023-06-24T08:19:34.167Z,25.44
2023-06-24T08:20:34.140Z,25.32
2023-06-24T08:21:34.154Z,25.32
2023-06-24T08:22:34.117Z,25.22
2023-06-24T08:23:34.146Z,25.37
2023-06-24T08:24:34.113Z,25.53
2023-06-24T08:25:34.683Z,25.65
2023-06-24T08:26:34.096Z,25.90
2023-06-24T08:27:34.110Z,26.21
2023-06-24T08:28:34.102Z,26.40
2023-06-24T08:29:34.057Z,26.44
2023-06-24T08:30:34.078Z,26.65
2023-06-24T08:31:34.030Z,26.72
2023-06-24T08:32:34.087Z,26.84
2023-06-24T08:33:34.037Z,26.77
2023-06-24T08:34:34.003Z,26.83
2023-06-24T08:35:34.228Z,26.58
2023-06-24T08:36:34.015Z,26.59
2023-06-24T08:37:33.989Z,26.65
2023-06-24T08:38:33.976Z,26.72
2023-06-24T08:39:33.961Z,26.87
2023-06-24T08:40:33.944Z,26.87
2023-06-24T08:41:33.936Z,26.57
2023-06-24T08:42:33.963Z,26.47
2023-06-24T08:43:33.934Z,26.37
2023-06-24T08:44:33.904Z,26.20
2023-06-24T08:45:34.135Z,26.36
2023-06-24T08:46:33.895Z,26.39
2023-06-24T08:47:34.063Z,26.17
2023-06-24T08:48:34.033Z,26.24
2023-06-24T08:49:33.995Z,26.52
2023-06-24T08:50:33.849Z,26.46
2023-06-24T08:51:33.882Z,26.55
2023-06-24T08:52:33.837Z,26.49
2023-06-24T08:53:33.925Z,26.72
2023-06-24T08:54:33.826Z,26.87
2023-06-24T08:55:34.253Z,26.89
2023-06-24T08:56:33.808Z,26.89
2023-06-24T08:57:33.777Z,27.06
2023-06-24T08:58:33.774Z,27.06
2023-06-24T08:59:33.776Z,27.02
2023-06-24T09:00:33.752Z,26.91
2023-06-24T09:01:33.790Z,26.59
2023-06-24T09:02:33.766Z,26.50
2023-06-24T09:03:33.854Z,26.46
2023-06-24T09:04:33.702Z,26.35
2023-06-24T09:05:33.977Z,25.91
2023-06-24T09:06:33.681Z,25.53
2023-06-24T09:07:33.848Z,25.20
2023-06-24T09:08:33.664Z,25.12
2023-06-24T09:09:33.680Z,25.32
2023-06-24T09:10:33.746Z,25.47
2023-06-24T09:11:33.631Z,25.62
2023-06-24T09:12:33.625Z,25.94
2023-06-24T09:13:33.615Z,26.08
2023-06-24T09:14:33.614Z,26.11
2023-06-24T09:15:33.810Z,26.37
2023-06-24T09:16:33.585Z,26.39
2023-06-24T09:17:33.617Z,26.44
2023-06-24T09:18:33.609Z,26.65
2023-06-24T09:19:33.612Z,26.84
2023-06-24T09:20:33.549Z,27.02
2023-06-24T09:21:33.563Z,27.16
2023-06-24T09:22:33.571Z,27.33
2023-06-24T09:23:33.531Z,27.24
2023-06-24T09:24:33.511Z,27.11
2023-06-24T09:25:33.904Z,27.09
2023-06-24T09:26:33.538Z,27.05
2023-06-24T09:27:33.506Z,27.09
2023-06-24T09:28:33.486Z,27.20
2023-06-24T09:29:33.489Z,27.23
2023-06-24T09:30:33.441Z,27.20
2023-06-24T09:31:33.472Z,27.02
2023-06-24T09:32:33.751Z,27.04
2023-06-24T09:33:33.428Z,27.09
2023-06-24T09:34:33.397Z,27.20
2023-06-24T09:35:33.480Z,27.31
2023-06-24T09:36:33.390Z,27.09
2023-06-24T09:37:33.395Z,27.01
2023-06-24T09:38:33.372Z,26.92
2023-06-24T09:39:33.357Z,26.83
2023-06-24T09:40:33.588Z,26.87
2023-06-24T09:41:33.326Z,26.98
2023-06-24T09:42:33.348Z,26.95
2023-06-24T09:43:33.353Z,26.98
2023-06-24T09:44:33.350Z,26.89
2023-06-24T09:45:33.639Z,26.72
2023-06-24T09:46:33.398Z,26.61
2023-06-24T09:47:33.384Z,26.37
2023-06-24T09:48:33.255Z,26.37
2023-06-24T09:49:33.238Z,26.39
2023-06-24T09:50:33.275Z,26.27
2023-06-24T09:51:33.212Z,26.11
2023-06-24T09:52:33.241Z,25.90
2023-06-24T09:53:33.204Z,25.68
2023-06-24T09:54:34.897Z,25.74
2023-06-24T09:55:33.313Z,25.87
2023-06-24T09:56:33.182Z,25.91
2023-06-24T09:57:33.204Z,25.89
2023-06-24T09:58:33.156Z,25.87
2023-06-24T09:59:33.135Z,26.12
2023-06-24T10:00:33.333Z,26.35
2023-06-24T10:01:33.159Z,26.62
2023-06-24T10:02:33.264Z,26.98
2023-06-24T10:03:33.258Z,27.28
2023-06-24T10:04:33.098Z,27.51
2023-06-24T10:05:33.255Z,27.67
2023-06-24T10:06:33.105Z,27.66
2023-06-24T10:07:33.094Z,27.57
2023-06-24T10:08:33.041Z,27.50
2023-06-24T10:09:33.040Z,27.57
2023-06-24T10:10:33.223Z,27.77
2023-06-24T10:11:33.049Z,27.77
2023-06-24T10:12:33.031Z,27.79
2023-06-24T10:13:33.015Z,27.70
2023-06-24T10:14:33.000Z,27.43
2023-06-24T10:15:32.990Z,27.21
2023-06-24T10:16:32.963Z,27.04
2023-06-24T10:17:33.097Z,27.05
2023-06-24T10:18:32.996Z,27.06
2023-06-24T10:19:32.962Z,26.92
2023-06-24T10:20:33.136Z,26.77
2023-06-24T10:21:32.941Z,26.77
2023-06-24T10:22:33.098Z,26.59
2023-06-24T10:23:32.886Z,26.65
2023-06-24T10:24:32.935Z,26.62
2023-06-24T10:25:32.875Z,26.69
2023-06-24T10:26:32.879Z,26.62
2023-06-24T10:27:32.853Z,26.49
2023-06-24T10:28:32.848Z,26.44
2023-06-24T10:29:32.857Z,26.58
2023-06-24T10:30:32.916Z,26.76
2023-06-24T10:31:32.852Z,26.80
2023-06-24T10:32:32.825Z,26.52
2023-06-24T10:33:32.812Z,26.47
2023-06-24T10:34:32.816Z,26.49
2023-06-24T10:35:32.755Z,26.76
2023-06-24T10:36:32.771Z,26.84
2023-06-24T10:37:32.810Z,26.94
2023-06-24T10:38:32.748Z,26.84
2023-06-24T10:39:32.732Z,27.05
2023-06-24T10:40:32.814Z,27.32
2023-06-24T10:41:32.691Z,27.32
2023-06-24T10:42:32.770Z,27.43
2023-06-24T10:43:32.689Z,27.28
2023-06-24T10:44:32.686Z,27.29
2023-06-24T10:45:32.689Z,27.20
2023-06-24T10:46:32.690Z,26.99
2023-06-24T10:47:32.688Z,26.99
2023-06-24T10:48:32.665Z,26.84
2023-06-24T10:49:32.662Z,26.87
2023-06-24T10:50:32.707Z,26.86
2023-06-24T10:51:32.600Z,26.87
2023-06-24T10:52:32.594Z,26.99
2023-06-24T10:53:32.592Z,27.09
2023-06-24T10:54:32.589Z,26.89
2023-06-24T10:55:32.586Z,26.83
2023-06-24T10:56:32.576Z,26.77
2023-06-24T10:57:32.606Z,26.84
2023-06-24T10:58:32.542Z,27.10
2023-06-24T10:59:32.525Z,27.19
2023-06-24T11:00:32.524Z,27.28
2023-06-24T11:01:32.580Z,27.24
2023-06-24T11:02:32.592Z,27.06
2023-06-24T11:03:32.561Z,26.73
2023-06-24T11:04:32.464Z,26.36
2023-06-24T11:05:32.463Z,25.83
2023-06-24T11:06:32.482Z,25.62
2023-06-24T11:07:32.436Z,25.52
2023-06-24T11:08:32.445Z,25.43
2023-06-24T11:09:32.450Z,25.28
2023-06-24T11:10:32.511Z,25.13
2023-06-24T11:11:32.419Z,25.12
2023-06-24T11:12:32.455Z,25.17
2023-06-24T11:13:32.369Z,25.22
2023-06-24T11:14:32.373Z,25.22
2023-06-24T11:15:34.161Z,25.09
2023-06-24T11:16:32.374Z,25.10
2023-06-24T11:17:32.352Z,25.20
2023-06-24T11:18:32.327Z,25.32
2023-06-24T11:19:32.333Z,25.49
2023-06-24T11:20:32.360Z,25.79
2023-06-24T11:21:32.311Z,26.06
2023-06-24T11:22:32.330Z,26.39
2023-06-24T11:23:32.260Z,26.59
2023-06-24T11:24:32.266Z,26.69
2023-06-24T11:25:32.259Z,26.54
2023-06-24T11:26:32.259Z,26.40
2023-06-24T11:27:32.245Z,26.15
2023-06-24T11:28:32.239Z,26.08
2023-06-24T11:29:32.215Z,25.93
2023-06-24T11:30:32.270Z,25.79
2023-06-24T11:31:32.259Z,25.62
2023-06-24T11:32:32.225Z,25.44
2023-06-24T11:33:32.166Z,25.20
2023-06-24T11:34:32.160Z,25.20
2023-06-24T11:35:32.165Z,25.35
2023-06-24T11:36:32.136Z,25.49
2023-06-24T11:37:32.162Z,25.67
2023-06-24T11:38:32.118Z,25.89
2023-06-24T11:39:32.126Z,25.94
2023-06-24T11:40:32.201Z,25.93
2023-06-24T11:41:32.096Z,25.99
2023-06-24T11:42:32.079Z,26.17
2023-06-24T11:43:32.077Z,26.15
2023-06-24T11:44:32.094Z,26.08
2023-06-24T11:45:32.045Z,26.12
2023-06-24T11:46:32.082Z,26.08
2023-06-24T11:47:32.063Z,26.15
2023-06-24T11:48:32.011Z,26.37
2023-06-24T11:49:32.037Z,26.67
2023-06-24T11:50:32.034Z,26.86
2023-06-24T11:51:31.987Z,27.04
2023-06-24T11:52:31.979Z,27.23
2023-06-24T11:53:31.986Z,27.33
2023-06-24T11:54:31.975Z,27.42
2023-06-24T11:55:31.967Z,27.50
2023-06-24T11:56:31.939Z,27.53
2023-06-24T11:57:31.918Z,27.53
2023-06-24T11:58:31.936Z,27.62
2023-06-24T11:59:31.924Z,27.64
2023-06-24T12:00:31.961Z,27.05
2023-06-24T12:01:31.921Z,26.80
2023-06-24T12:02:31.890Z,26.73
2023-06-24T12:03:31.963Z,26.68
2023-06-24T12:04:32.007Z,26.81
2023-06-24T12:05:31.862Z,26.80
2023-06-24T12:06:31.872Z,26.54
2023-06-24T12:07:31.868Z,26.29
2023-06-24T12:08:43.177Z,26.17
2023-06-24T12:09:31.814Z,26.06
2023-06-24T12:10:31.800Z,26.06
2023-06-24T12:11:31.800Z,26.06
2023-06-24T12:12:31.809Z,25.93
2023-06-24T12:13:31.772Z,26.01
2023-06-24T12:14:31.781Z,26.18
2023-06-24T12:15:31.773Z,26.32
2023-06-24T12:16:31.779Z,26.52
2023-06-24T12:17:31.792Z,26.74
2023-06-24T12:18:31.736Z,26.95
2023-06-24T12:19:31.766Z,27.20
2023-06-24T12:20:34.994Z,27.41
2023-06-24T12:21:31.723Z,27.41
2023-06-24T12:22:31.728Z,27.53
2023-06-24T12:23:31.655Z,27.67
2023-06-24T12:24:31.655Z,27.85
2023-06-24T12:25:31.713Z,27.86
2023-06-24T12:26:31.648Z,27.82
2023-06-24T12:27:31.621Z,27.69
2023-06-24T12:28:31.623Z,27.70
2023-06-24T12:29:31.617Z,27.54
2023-06-24T12:30:31.609Z,27.42
2023-06-24T12:31:31.606Z,27.50
2023-06-24T12:32:31.625Z,27.43
2023-06-24T12:33:31.565Z,27.42
2023-06-24T12:34:31.582Z,27.29
2023-06-24T12:35:31.560Z,27.20
2023-06-24T12:36:31.550Z,26.95
2023-06-24T12:37:31.572Z,26.64
2023-06-24T12:38:31.515Z,26.50
2023-06-24T12:39:31.549Z,26.49
2023-06-24T12:40:31.551Z,26.61
2023-06-24T12:41:31.482Z,26.68
2023-06-24T12:42:31.491Z,26.80
2023-06-24T12:43:31.563Z,26.84
2023-06-24T12:44:31.458Z,26.69
2023-06-24T12:45:31.452Z,26.72
2023-06-24T12:46:31.480Z,26.72
2023-06-24T12:47:31.472Z,26.84
2023-06-24T12:48:31.420Z,26.99
2023-06-24T12:49:31.437Z,27.06
2023-06-24T12:50:31.408Z,27.23
2023-06-24T12:51:31.396Z,27.06
2023-06-24T12:52:31.421Z,27.04